sensor_id;sensor_type;location;lat;lon;timestamp;P1;durP1;ratioP1;P2;durP2;ratioP2
40489;SDS011;26196;52.302;10.572;2024-03-06T00:02:01;5.80;;;4.35;;
40489;SDS011;26196;52.302;10.572;2024-03-06T00:06:04;8.05;;;5.43;;
40489;SDS011;26196;52.302;10.572;2024-03-06T00:10:06;5.00;;;4.38;;
40489;SDS011;26196;52.302;10.572;2024-03-06T00:14:07;4.75;;;4.00;;
40489;SDS011;26196;52.302;10.572;2024-03-06T00:18:09;7.20;;;4.82;;
40489;SDS011;26196;52.302;10.572;2024-03-06T00:22:11;6.97;;;5.43;;
40489;SDS011;26196;52.302;10.572;2024-03-06T00:26:13;6.05;;;4.38;;
40489;SDS011;26196;52.302;10.572;2024-03-06T00:30:14;5.78;;;4.50;;
40489;SDS011;26196;52.302;10.572;2024-03-06T00:34:16;8.07;;;4.53;;
40489;SDS011;26196;52.302;10.572;2024-03-06T00:38:18;7.07;;;5.10;;
40489;SDS011;26196;52.302;10.572;2024-03-06T00:42:19;6.22;;;4.43;;
40489;SDS011;26196;52.302;10.572;2024-03-06T00:46:21;5.68;;;4.78;;
40489;SDS011;26196;52.302;10.572;2024-03-06T00:50:23;5.88;;;4.78;;
40489;SDS011;26196;52.302;10.572;2024-03-06T00:54:25;6.45;;;4.55;;
40489;SDS011;26196;52.302;10.572;2024-03-06T00:58:26;6.65;;;4.95;;
40489;SDS011;26196;52.302;10.572;2024-03-06T01:02:28;6.65;;;4.72;;
40489;SDS011;26196;52.302;10.572;2024-03-06T01:06:29;6.93;;;4.97;;
40489;SDS011;26196;52.302;10.572;2024-03-06T01:10:31;7.28;;;4.40;;
40489;SDS011;26196;52.302;10.572;2024-03-06T01:14:32;6.63;;;4.65;;
40489;SDS011;26196;52.302;10.572;2024-03-06T01:18:37;6.82;;;4.85;;
40489;SDS011;26196;52.302;10.572;2024-03-06T01:22:38;7.45;;;4.63;;
40489;SDS011;26196;52.302;10.572;2024-03-06T01:26:40;5.80;;;4.65;;
40489;SDS011;26196;52.302;10.572;2024-03-06T01:30:42;5.63;;;4.30;;
40489;SDS011;26196;52.302;10.572;2024-03-06T01:34:43;7.72;;;4.60;;
40489;SDS011;26196;52.302;10.572;2024-03-06T01:38:45;6.53;;;4.57;;
40489;SDS011;26196;52.302;10.572;2024-03-06T01:42:47;6.53;;;4.88;;
40489;SDS011;26196;52.302;10.572;2024-03-06T01:46:52;8.50;;;5.88;;
40489;SDS011;26196;52.302;10.572;2024-03-06T01:50:56;6.10;;;4.50;;
40489;SDS011;26196;52.302;10.572;2024-03-06T01:54:59;4.25;;;3.78;;
40489;SDS011;26196;52.302;10.572;2024-03-06T01:59:00;7.47;;;4.28;;
40489;SDS011;26196;52.302;10.572;2024-03-06T02:03:03;6.20;;;4.60;;
40489;SDS011;26196;52.302;10.572;2024-03-06T02:07:09;9.50;;;5.30;;
40489;SDS011;26196;52.302;10.572;2024-03-06T02:11:12;6.50;;;4.93;;
40489;SDS011;26196;52.302;10.572;2024-03-06T02:15:13;6.47;;;5.03;;
40489;SDS011;26196;52.302;10.572;2024-03-06T02:19:16;7.97;;;4.85;;
40489;SDS011;26196;52.302;10.572;2024-03-06T02:23:17;6.70;;;4.78;;
40489;SDS011;26196;52.302;10.572;2024-03-06T02:27:19;6.80;;;4.70;;
40489;SDS011;26196;52.302;10.572;2024-03-06T02:31:21;6.38;;;4.75;;
40489;SDS011;26196;52.302;10.572;2024-03-06T02:35:24;5.60;;;4.50;;
40489;SDS011;26196;52.302;10.572;2024-03-06T02:39:25;5.97;;;4.72;;
40489;SDS011;26196;52.302;10.572;2024-03-06T02:43:27;7.40;;;5.25;;
40489;SDS011;26196;52.302;10.572;2024-03-06T02:47:28;6.28;;;4.43;;
40489;SDS011;26196;52.302;10.572;2024-03-06T02:51:30;7.38;;;5.45;;
40489;SDS011;26196;52.302;10.572;2024-03-06T02:55:31;6.82;;;5.18;;
40489;SDS011;26196;52.302;10.572;2024-03-06T02:59:33;8.27;;;4.97;;
40489;SDS011;26196;52.302;10.572;2024-03-06T03:03:35;6.68;;;4.60;;
40489;SDS011;26196;52.302;10.572;2024-03-06T03:07:37;7.22;;;5.18;;
40489;SDS011;26196;52.302;10.572;2024-03-06T03:11:38;9.23;;;5.57;;
40489;SDS011;26196;52.302;10.572;2024-03-06T03:15:40;9.80;;;5.72;;
40489;SDS011;26196;52.302;10.572;2024-03-06T03:19:42;7.22;;;5.25;;
40489;SDS011;26196;52.302;10.572;2024-03-06T03:23:44;8.13;;;5.68;;
40489;SDS011;26196;52.302;10.572;2024-03-06T03:27:45;7.10;;;5.55;;
40489;SDS011;26196;52.302;10.572;2024-03-06T03:31:48;7.00;;;5.45;;
40489;SDS011;26196;52.302;10.572;2024-03-06T03:35:50;6.68;;;4.93;;
40489;SDS011;26196;52.302;10.572;2024-03-06T03:39:51;5.68;;;4.75;;
40489;SDS011;26196;52.302;10.572;2024-03-06T03:43:53;6.45;;;5.25;;
40489;SDS011;26196;52.302;10.572;2024-03-06T03:47:54;7.13;;;5.32;;
40489;SDS011;26196;52.302;10.572;2024-03-06T03:51:56;8.80;;;6.00;;
40489;SDS011;26196;52.302;10.572;2024-03-06T03:55:57;7.90;;;5.57;;
40489;SDS011;26196;52.302;10.572;2024-03-06T03:59:59;7.40;;;5.43;;
40489;SDS011;26196;52.302;10.572;2024-03-06T04:04:01;8.75;;;5.70;;
40489;SDS011;26196;52.302;10.572;2024-03-06T04:08:02;9.55;;;6.18;;
40489;SDS011;26196;52.302;10.572;2024-03-06T04:12:07;9.57;;;6.60;;
40489;SDS011;26196;52.302;10.572;2024-03-06T04:16:08;7.65;;;5.60;;
40489;SDS011;26196;52.302;10.572;2024-03-06T04:20:10;9.35;;;5.57;;
40489;SDS011;26196;52.302;10.572;2024-03-06T04:24:13;9.70;;;5.70;;
40489;SDS011;26196;52.302;10.572;2024-03-06T04:28:15;9.48;;;5.88;;
40489;SDS011;26196;52.302;10.572;2024-03-06T04:32:16;8.60;;;5.80;;
40489;SDS011;26196;52.302;10.572;2024-03-06T04:36:18;8.25;;;5.93;;
40489;SDS011;26196;52.302;10.572;2024-03-06T04:40:19;9.75;;;6.18;;
40489;SDS011;26196;52.302;10.572;2024-03-06T04:44:23;8.13;;;6.13;;
40489;SDS011;26196;52.302;10.572;2024-03-06T04:48:25;7.45;;;5.72;;
40489;SDS011;26196;52.302;10.572;2024-03-06T04:52:26;7.88;;;5.85;;
40489;SDS011;26196;52.302;10.572;2024-03-06T04:56:28;8.20;;;6.00;;
40489;SDS011;26196;52.302;10.572;2024-03-06T05:00:30;10.15;;;6.30;;
40489;SDS011;26196;52.302;10.572;2024-03-06T05:04:32;10.60;;;5.60;;
40489;SDS011;26196;52.302;10.572;2024-03-06T05:08:51;10.07;;;6.80;;
40489;SDS011;26196;52.302;10.572;2024-03-06T05:13:10;12.48;;;7.35;;
40489;SDS011;26196;52.302;10.572;2024-03-06T05:17:29;10.98;;;6.43;;
40489;SDS011;26196;52.302;10.572;2024-03-06T05:21:48;13.98;;;6.82;;
40489;SDS011;26196;52.302;10.572;2024-03-06T05:26:07;10.18;;;5.80;;
40489;SDS011;26196;52.302;10.572;2024-03-06T05:30:27;9.00;;;6.70;;
40489;SDS011;26196;52.302;10.572;2024-03-06T05:34:47;10.30;;;6.78;;
40489;SDS011;26196;52.302;10.572;2024-03-06T05:39:06;13.48;;;6.70;;
40489;SDS011;26196;52.302;10.572;2024-03-06T05:43:31;10.95;;;5.68;;
40489;SDS011;26196;52.302;10.572;2024-03-06T05:47:50;9.82;;;5.93;;
40489;SDS011;26196;52.302;10.572;2024-03-06T05:52:09;9.88;;;5.68;;
40489;SDS011;26196;52.302;10.572;2024-03-06T05:56:28;13.07;;;6.18;;
40489;SDS011;26196;52.302;10.572;2024-03-06T06:00:47;7.72;;;5.72;;
40489;SDS011;26196;52.302;10.572;2024-03-06T06:04:49;8.73;;;5.53;;
40489;SDS011;26196;52.302;10.572;2024-03-06T06:09:10;11.77;;;6.55;;
40489;SDS011;26196;52.302;10.572;2024-03-06T06:13:17;10.43;;;6.30;;
40489;SDS011;26196;52.302;10.572;2024-03-06T06:17:19;9.98;;;7.20;;
40489;SDS011;26196;52.302;10.572;2024-03-06T06:21:26;9.48;;;7.03;;
40489;SDS011;26196;52.302;10.572;2024-03-06T06:25:28;9.45;;;6.78;;
40489;SDS011;26196;52.302;10.572;2024-03-06T06:29:29;12.82;;;7.00;;
40489;SDS011;26196;52.302;10.572;2024-03-06T06:33:31;10.23;;;6.10;;
40489;SDS011;26196;52.302;10.572;2024-03-06T06:37:32;9.15;;;6.82;;
40489;SDS011;26196;52.302;10.572;2024-03-06T06:41:35;12.50;;;7.40;;
40489;SDS011;26196;52.302;10.572;2024-03-06T06:45:36;11.30;;;7.78;;
40489;SDS011;26196;52.302;10.572;2024-03-06T06:49:39;12.38;;;7.03;;
40489;SDS011;26196;52.302;10.572;2024-03-06T06:53:41;13.85;;;7.45;;
40489;SDS011;26196;52.302;10.572;2024-03-06T06:57:43;10.00;;;6.20;;
40489;SDS011;26196;52.302;10.572;2024-03-06T07:01:45;10.60;;;7.57;;
40489;SDS011;26196;52.302;10.572;2024-03-06T07:05:47;10.98;;;6.55;;
40489;SDS011;26196;52.302;10.572;2024-03-06T07:09:49;11.05;;;6.90;;
40489;SDS011;26196;52.302;10.572;2024-03-06T07:13:50;8.90;;;6.03;;
40489;SDS011;26196;52.302;10.572;2024-03-06T07:17:52;10.90;;;7.13;;
40489;SDS011;26196;52.302;10.572;2024-03-06T07:21:54;10.23;;;7.07;;
40489;SDS011;26196;52.302;10.572;2024-03-06T07:25:55;8.48;;;6.13;;
40489;SDS011;26196;52.302;10.572;2024-03-06T07:29:58;9.88;;;6.50;;
40489;SDS011;26196;52.302;10.572;2024-03-06T07:34:00;8.95;;;5.93;;
40489;SDS011;26196;52.302;10.572;2024-03-06T07:38:02;8.82;;;6.07;;
40489;SDS011;26196;52.302;10.572;2024-03-06T07:42:05;10.45;;;5.65;;
40489;SDS011;26196;52.302;10.572;2024-03-06T07:46:07;9.02;;;6.25;;
40489;SDS011;26196;52.302;10.572;2024-03-06T07:50:11;10.88;;;7.18;;
40489;SDS011;26196;52.302;10.572;2024-03-06T07:54:14;10.00;;;6.75;;
40489;SDS011;26196;52.302;10.572;2024-03-06T07:58:15;8.23;;;5.90;;
40489;SDS011;26196;52.302;10.572;2024-03-06T08:02:18;10.77;;;7.18;;
40489;SDS011;26196;52.302;10.572;2024-03-06T08:06:19;9.48;;;5.80;;
40489;SDS011;26196;52.302;10.572;2024-03-06T08:10:21;9.30;;;6.82;;
40489;SDS011;26196;52.302;10.572;2024-03-06T08:14:22;8.35;;;5.95;;
40489;SDS011;26196;52.302;10.572;2024-03-06T08:18:25;12.25;;;7.10;;
40489;SDS011;26196;52.302;10.572;2024-03-06T08:22:26;7.18;;;5.70;;
40489;SDS011;26196;52.302;10.572;2024-03-06T08:26:28;8.40;;;6.32;;
40489;SDS011;26196;52.302;10.572;2024-03-06T08:30:29;10.65;;;6.22;;
40489;SDS011;26196;52.302;10.572;2024-03-06T08:34:34;6.75;;;5.53;;
40489;SDS011;26196;52.302;10.572;2024-03-06T08:38:35;8.32;;;6.22;;
40489;SDS011;26196;52.302;10.572;2024-03-06T08:42:37;8.93;;;5.80;;
40489;SDS011;26196;52.302;10.572;2024-03-06T08:46:39;8.88;;;6.20;;
40489;SDS011;26196;52.302;10.572;2024-03-06T08:50:40;9.55;;;5.90;;
40489;SDS011;26196;52.302;10.572;2024-03-06T08:54:42;7.75;;;5.22;;
40489;SDS011;26196;52.302;10.572;2024-03-06T08:58:44;10.40;;;7.68;;
40489;SDS011;26196;52.302;10.572;2024-03-06T09:02:45;10.35;;;7.25;;
40489;SDS011;26196;52.302;10.572;2024-03-06T09:06:47;8.38;;;6.18;;
40489;SDS011;26196;52.302;10.572;2024-03-06T09:10:50;8.70;;;6.00;;
40489;SDS011;26196;52.302;10.572;2024-03-06T09:14:51;9.60;;;6.53;;
40489;SDS011;26196;52.302;10.572;2024-03-06T09:18:53;8.75;;;6.00;;
40489;SDS011;26196;52.302;10.572;2024-03-06T09:22:54;9.68;;;5.80;;
40489;SDS011;26196;52.302;10.572;2024-03-06T09:26:58;8.27;;;5.53;;
40489;SDS011;26196;52.302;10.572;2024-03-06T09:31:00;9.38;;;5.47;;
40489;SDS011;26196;52.302;10.572;2024-03-06T09:35:02;9.77;;;5.88;;
40489;SDS011;26196;52.302;10.572;2024-03-06T09:39:04;8.65;;;5.88;;
40489;SDS011;26196;52.302;10.572;2024-03-06T09:43:06;9.05;;;5.80;;
40489;SDS011;26196;52.302;10.572;2024-03-06T09:47:08;7.97;;;5.22;;
40489;SDS011;26196;52.302;10.572;2024-03-06T09:51:18;9.15;;;5.70;;
40489;SDS011;26196;52.302;10.572;2024-03-06T09:55:19;9.40;;;6.63;;
40489;SDS011;26196;52.302;10.572;2024-03-06T09:59:21;9.88;;;5.25;;
40489;SDS011;26196;52.302;10.572;2024-03-06T10:03:23;8.48;;;5.43;;
40489;SDS011;26196;52.302;10.572;2024-03-06T10:07:24;6.38;;;4.85;;
40489;SDS011;26196;52.302;10.572;2024-03-06T10:11:28;7.32;;;4.93;;
40489;SDS011;26196;52.302;10.572;2024-03-06T10:15:30;7.72;;;5.30;;
40489;SDS011;26196;52.302;10.572;2024-03-06T10:19:32;8.80;;;5.35;;
40489;SDS011;26196;52.302;10.572;2024-03-06T10:23:34;7.70;;;4.32;;
40489;SDS011;26196;52.302;10.572;2024-03-06T10:27:36;6.35;;;4.13;;
40489;SDS011;26196;52.302;10.572;2024-03-06T10:31:38;8.90;;;5.28;;
40489;SDS011;26196;52.302;10.572;2024-03-06T10:35:43;6.30;;;4.53;;
40489;SDS011;26196;52.302;10.572;2024-03-06T10:39:46;8.50;;;4.78;;
40489;SDS011;26196;52.302;10.572;2024-03-06T10:43:51;6.32;;;4.30;;
40489;SDS011;26196;52.302;10.572;2024-03-06T10:47:55;6.78;;;3.97;;
40489;SDS011;26196;52.302;10.572;2024-03-06T10:51:59;9.48;;;5.50;;
40489;SDS011;26196;52.302;10.572;2024-03-06T10:56:02;6.90;;;4.95;;
40489;SDS011;26196;52.302;10.572;2024-03-06T11:00:08;7.30;;;5.50;;
40489;SDS011;26196;52.302;10.572;2024-03-06T11:04:11;8.07;;;5.35;;
40489;SDS011;26196;52.302;10.572;2024-03-06T11:08:14;8.80;;;4.80;;
40489;SDS011;26196;52.302;10.572;2024-03-06T11:12:34;6.40;;;5.28;;
40489;SDS011;26196;52.302;10.572;2024-03-06T11:16:55;7.63;;;4.70;;
40489;SDS011;26196;52.302;10.572;2024-03-06T11:25:05;9.23;;;5.32;;
40489;SDS011;26196;52.302;10.572;2024-03-06T11:29:07;6.75;;;4.47;;
40489;SDS011;26196;52.302;10.572;2024-03-06T11:33:11;7.35;;;4.32;;
40489;SDS011;26196;52.302;10.572;2024-03-06T11:37:14;6.97;;;4.27;;
40489;SDS011;26196;52.302;10.572;2024-03-06T11:41:22;9.63;;;5.40;;
40489;SDS011;26196;52.302;10.572;2024-03-06T11:45:26;7.55;;;5.45;;
40489;SDS011;26196;52.302;10.572;2024-03-06T11:49:29;6.68;;;4.38;;
40489;SDS011;26196;52.302;10.572;2024-03-06T11:53:35;6.07;;;4.57;;
40489;SDS011;26196;52.302;10.572;2024-03-06T11:57:38;5.70;;;4.53;;
40489;SDS011;26196;52.302;10.572;2024-03-06T12:01:41;6.15;;;4.45;;
40489;SDS011;26196;52.302;10.572;2024-03-06T12:05:44;5.38;;;4.10;;
40489;SDS011;26196;52.302;10.572;2024-03-06T12:09:47;5.28;;;4.05;;
40489;SDS011;26196;52.302;10.572;2024-03-06T12:13:48;5.57;;;4.50;;
40489;SDS011;26196;52.302;10.572;2024-03-06T12:17:50;5.90;;;4.00;;
40489;SDS011;26196;52.302;10.572;2024-03-06T12:21:54;6.47;;;4.88;;
40489;SDS011;26196;52.302;10.572;2024-03-06T12:26:08;6.05;;;4.43;;
40489;SDS011;26196;52.302;10.572;2024-03-06T12:30:17;7.60;;;4.22;;
40489;SDS011;26196;52.302;10.572;2024-03-06T12:34:19;7.82;;;4.55;;
40489;SDS011;26196;52.302;10.572;2024-03-06T12:38:21;7.28;;;4.85;;
40489;SDS011;26196;52.302;10.572;2024-03-06T12:42:22;9.15;;;5.00;;
40489;SDS011;26196;52.302;10.572;2024-03-06T12:46:25;6.65;;;4.90;;
40489;SDS011;26196;52.302;10.572;2024-03-06T12:50:28;9.82;;;5.88;;
40489;SDS011;26196;52.302;10.572;2024-03-06T12:54:29;8.57;;;5.40;;
40489;SDS011;26196;52.302;10.572;2024-03-06T12:58:31;5.85;;;4.30;;
40489;SDS011;26196;52.302;10.572;2024-03-06T13:02:32;8.90;;;5.50;;
40489;SDS011;26196;52.302;10.572;2024-03-06T13:06:34;8.88;;;5.13;;
40489;SDS011;26196;52.302;10.572;2024-03-06T13:10:35;7.80;;;5.15;;
40489;SDS011;26196;52.302;10.572;2024-03-06T13:14:37;8.35;;;5.05;;
40489;SDS011;26196;52.302;10.572;2024-03-06T13:18:38;10.13;;;5.60;;
40489;SDS011;26196;52.302;10.572;2024-03-06T13:22:40;12.48;;;6.13;;
40489;SDS011;26196;52.302;10.572;2024-03-06T13:26:41;10.57;;;5.55;;
40489;SDS011;26196;52.302;10.572;2024-03-06T13:30:43;9.88;;;5.25;;
40489;SDS011;26196;52.302;10.572;2024-03-06T13:34:45;8.52;;;5.10;;
40489;SDS011;26196;52.302;10.572;2024-03-06T13:38:46;9.73;;;6.30;;
40489;SDS011;26196;52.302;10.572;2024-03-06T13:42:48;10.25;;;5.55;;
40489;SDS011;26196;52.302;10.572;2024-03-06T13:46:49;7.22;;;5.25;;
40489;SDS011;26196;52.302;10.572;2024-03-06T13:50:51;7.88;;;5.82;;
40489;SDS011;26196;52.302;10.572;2024-03-06T13:54:53;9.48;;;5.57;;
40489;SDS011;26196;52.302;10.572;2024-03-06T13:58:54;10.65;;;5.75;;
40489;SDS011;26196;52.302;10.572;2024-03-06T14:02:56;6.78;;;5.00;;
40489;SDS011;26196;52.302;10.572;2024-03-06T14:06:59;9.32;;;5.63;;
40489;SDS011;26196;52.302;10.572;2024-03-06T14:11:00;6.63;;;3.80;;
40489;SDS011;26196;52.302;10.572;2024-03-06T14:15:05;13.15;;;4.68;;
40489;SDS011;26196;52.302;10.572;2024-03-06T14:19:10;7.07;;;4.70;;
40489;SDS011;26196;52.302;10.572;2024-03-06T14:23:12;6.05;;;4.63;;
40489;SDS011;26196;52.302;10.572;2024-03-06T14:27:14;6.40;;;4.70;;
40489;SDS011;26196;52.302;10.572;2024-03-06T14:31:17;7.32;;;4.72;;
40489;SDS011;26196;52.302;10.572;2024-03-06T14:35:19;6.32;;;4.72;;
40489;SDS011;26196;52.302;10.572;2024-03-06T14:39:21;9.75;;;6.28;;
40489;SDS011;26196;52.302;10.572;2024-03-06T14:43:24;7.95;;;5.28;;
40489;SDS011;26196;52.302;10.572;2024-03-06T14:47:26;10.30;;;4.80;;
40489;SDS011;26196;52.302;10.572;2024-03-06T14:51:28;8.52;;;6.00;;
40489;SDS011;26196;52.302;10.572;2024-03-06T14:55:30;7.65;;;5.47;;
40489;SDS011;26196;52.302;10.572;2024-03-06T14:59:31;7.95;;;5.38;;
40489;SDS011;26196;52.302;10.572;2024-03-06T15:03:33;10.25;;;6.80;;
40489;SDS011;26196;52.302;10.572;2024-03-06T15:07:35;7.35;;;4.80;;
40489;SDS011;26196;52.302;10.572;2024-03-06T15:11:36;10.30;;;5.60;;
40489;SDS011;26196;52.302;10.572;2024-03-06T15:15:39;10.43;;;5.47;;
40489;SDS011;26196;52.302;10.572;2024-03-06T15:19:41;10.70;;;5.53;;
40489;SDS011;26196;52.302;10.572;2024-03-06T15:23:43;8.80;;;5.70;;
40489;SDS011;26196;52.302;10.572;2024-03-06T15:27:44;9.63;;;5.80;;
40489;SDS011;26196;52.302;10.572;2024-03-06T15:31:47;8.90;;;5.85;;
40489;SDS011;26196;52.302;10.572;2024-03-06T15:35:48;8.38;;;5.63;;
40489;SDS011;26196;52.302;10.572;2024-03-06T15:39:50;11.00;;;7.00;;
40489;SDS011;26196;52.302;10.572;2024-03-06T15:43:52;12.80;;;5.03;;
40489;SDS011;26196;52.302;10.572;2024-03-06T15:47:53;9.00;;;5.07;;
40489;SDS011;26196;52.302;10.572;2024-03-06T15:51:55;8.10;;;5.03;;
40489;SDS011;26196;52.302;10.572;2024-03-06T15:55:57;8.07;;;5.78;;
40489;SDS011;26196;52.302;10.572;2024-03-06T15:59:58;8.35;;;5.40;;
40489;SDS011;26196;52.302;10.572;2024-03-06T16:04:00;7.60;;;5.15;;
40489;SDS011;26196;52.302;10.572;2024-03-06T16:08:02;8.23;;;5.22;;
40489;SDS011;26196;52.302;10.572;2024-03-06T16:12:06;9.02;;;5.05;;
40489;SDS011;26196;52.302;10.572;2024-03-06T16:16:08;8.57;;;5.60;;
40489;SDS011;26196;52.302;10.572;2024-03-06T16:20:09;7.25;;;5.20;;
40489;SDS011;26196;52.302;10.572;2024-03-06T16:24:12;7.22;;;5.75;;
40489;SDS011;26196;52.302;10.572;2024-03-06T16:28:13;9.48;;;6.30;;
40489;SDS011;26196;52.302;10.572;2024-03-06T16:32:15;10.18;;;5.90;;
40489;SDS011;26196;52.302;10.572;2024-03-06T16:36:16;9.80;;;5.70;;
40489;SDS011;26196;52.302;10.572;2024-03-06T16:40:18;7.90;;;5.25;;
40489;SDS011;26196;52.302;10.572;2024-03-06T16:44:20;7.18;;;5.63;;
40489;SDS011;26196;52.302;10.572;2024-03-06T16:48:24;7.90;;;5.28;;
40489;SDS011;26196;52.302;10.572;2024-03-06T16:52:26;6.82;;;5.28;;
40489;SDS011;26196;52.302;10.572;2024-03-06T16:56:29;9.82;;;5.80;;
40489;SDS011;26196;52.302;10.572;2024-03-06T17:00:31;7.40;;;6.00;;
40489;SDS011;26196;52.302;10.572;2024-03-06T17:04:33;8.63;;;5.85;;
40489;SDS011;26196;52.302;10.572;2024-03-06T17:08:35;8.57;;;5.40;;
40489;SDS011;26196;52.302;10.572;2024-03-06T17:12:37;7.22;;;4.85;;
40489;SDS011;26196;52.302;10.572;2024-03-06T17:16:38;8.15;;;5.90;;
40489;SDS011;26196;52.302;10.572;2024-03-06T17:20:40;7.82;;;5.53;;
40489;SDS011;26196;52.302;10.572;2024-03-06T17:24:43;6.75;;;4.63;;
40489;SDS011;26196;52.302;10.572;2024-03-06T17:28:45;8.90;;;5.82;;
40489;SDS011;26196;52.302;10.572;2024-03-06T17:32:52;8.50;;;5.45;;
40489;SDS011;26196;52.302;10.572;2024-03-06T17:36:56;9.68;;;5.43;;
40489;SDS011;26196;52.302;10.572;2024-03-06T17:40:59;8.48;;;5.85;;
40489;SDS011;26196;52.302;10.572;2024-03-06T17:45:01;5.70;;;5.00;;
40489;SDS011;26196;52.302;10.572;2024-03-06T17:49:02;8.77;;;5.93;;
40489;SDS011;26196;52.302;10.572;2024-03-06T17:53:04;7.85;;;5.50;;
40489;SDS011;26196;52.302;10.572;2024-03-06T17:57:06;6.93;;;5.03;;
40489;SDS011;26196;52.302;10.572;2024-03-06T18:01:08;10.48;;;5.22;;
40489;SDS011;26196;52.302;10.572;2024-03-06T18:05:10;7.68;;;5.10;;
40489;SDS011;26196;52.302;10.572;2024-03-06T18:09:12;7.53;;;5.00;;
40489;SDS011;26196;52.302;10.572;2024-03-06T18:13:16;9.23;;;4.55;;
40489;SDS011;26196;52.302;10.572;2024-03-06T18:17:18;8.43;;;4.65;;
40489;SDS011;26196;52.302;10.572;2024-03-06T18:21:22;5.97;;;4.05;;
40489;SDS011;26196;52.302;10.572;2024-03-06T18:25:23;5.65;;;4.10;;
40489;SDS011;26196;52.302;10.572;2024-03-06T18:29:29;8.07;;;4.28;;
40489;SDS011;26196;52.302;10.572;2024-03-06T18:33:31;7.07;;;4.43;;
40489;SDS011;26196;52.302;10.572;2024-03-06T18:37:32;5.45;;;3.92;;
40489;SDS011;26196;52.302;10.572;2024-03-06T18:41:34;5.93;;;4.45;;
40489;SDS011;26196;52.302;10.572;2024-03-06T18:45:36;5.47;;;4.10;;
40489;SDS011;26196;52.302;10.572;2024-03-06T18:49:39;5.40;;;4.20;;
40489;SDS011;26196;52.302;10.572;2024-03-06T18:53:40;7.22;;;5.25;;
40489;SDS011;26196;52.302;10.572;2024-03-06T18:57:42;10.07;;;5.00;;
40489;SDS011;26196;52.302;10.572;2024-03-06T19:01:43;5.45;;;4.70;;
40489;SDS011;26196;52.302;10.572;2024-03-06T19:05:47;7.88;;;4.70;;
40489;SDS011;26196;52.302;10.572;2024-03-06T19:09:51;7.18;;;4.93;;
40489;SDS011;26196;52.302;10.572;2024-03-06T19:13:52;7.88;;;5.30;;
40489;SDS011;26196;52.302;10.572;2024-03-06T19:17:54;8.10;;;5.32;;
40489;SDS011;26196;52.302;10.572;2024-03-06T19:21:55;5.65;;;4.40;;
40489;SDS011;26196;52.302;10.572;2024-03-06T19:25:57;5.75;;;4.57;;
40489;SDS011;26196;52.302;10.572;2024-03-06T19:29:59;6.05;;;4.60;;
40489;SDS011;26196;52.302;10.572;2024-03-06T19:34:01;8.20;;;4.75;;
40489;SDS011;26196;52.302;10.572;2024-03-06T19:38:02;6.03;;;4.95;;
40489;SDS011;26196;52.302;10.572;2024-03-06T19:42:04;5.45;;;4.30;;
40489;SDS011;26196;52.302;10.572;2024-03-06T19:46:06;5.25;;;3.90;;
40489;SDS011;26196;52.302;10.572;2024-03-06T19:50:08;6.78;;;4.38;;
40489;SDS011;26196;52.302;10.572;2024-03-06T19:54:10;6.90;;;4.78;;
40489;SDS011;26196;52.302;10.572;2024-03-06T19:58:12;8.77;;;5.47;;
40489;SDS011;26196;52.302;10.572;2024-03-06T20:02:14;7.40;;;4.70;;
40489;SDS011;26196;52.302;10.572;2024-03-06T20:06:16;6.35;;;5.00;;
40489;SDS011;26196;52.302;10.572;2024-03-06T20:10:17;7.10;;;5.00;;
40489;SDS011;26196;52.302;10.572;2024-03-06T20:14:22;5.78;;;4.65;;
40489;SDS011;26196;52.302;10.572;2024-03-06T20:18:23;6.47;;;4.47;;
40489;SDS011;26196;52.302;10.572;2024-03-06T20:22:25;6.63;;;4.25;;
40489;SDS011;26196;52.302;10.572;2024-03-06T20:26:27;8.55;;;5.10;;
40489;SDS011;26196;52.302;10.572;2024-03-06T20:30:28;6.13;;;4.45;;
40489;SDS011;26196;52.302;10.572;2024-03-06T20:34:30;8.43;;;4.88;;
40489;SDS011;26196;52.302;10.572;2024-03-06T20:38:31;6.35;;;5.10;;
40489;SDS011;26196;52.302;10.572;2024-03-06T20:42:33;7.47;;;4.68;;
40489;SDS011;26196;52.302;10.572;2024-03-06T20:46:35;6.10;;;4.72;;
40489;SDS011;26196;52.302;10.572;2024-03-06T20:50:37;8.45;;;5.47;;
40489;SDS011;26196;52.302;10.572;2024-03-06T20:54:40;6.93;;;5.22;;
40489;SDS011;26196;52.302;10.572;2024-03-06T20:58:42;7.35;;;4.78;;
40489;SDS011;26196;52.302;10.572;2024-03-06T21:02:43;7.65;;;6.22;;
40489;SDS011;26196;52.302;10.572;2024-03-06T21:06:45;6.38;;;5.10;;
40489;SDS011;26196;52.302;10.572;2024-03-06T21:10:48;6.45;;;4.70;;
40489;SDS011;26196;52.302;10.572;2024-03-06T21:14:50;7.38;;;5.30;;
40489;SDS011;26196;52.302;10.572;2024-03-06T21:18:58;6.75;;;5.00;;
40489;SDS011;26196;52.302;10.572;2024-03-06T21:22:59;5.95;;;4.50;;
40489;SDS011;26196;52.302;10.572;2024-03-06T21:27:01;6.35;;;4.70;;
40489;SDS011;26196;52.302;10.572;2024-03-06T21:31:03;7.35;;;5.13;;
40489;SDS011;26196;52.302;10.572;2024-03-06T21:35:05;6.18;;;4.85;;
40489;SDS011;26196;52.302;10.572;2024-03-06T21:39:06;4.70;;;3.85;;
40489;SDS011;26196;52.302;10.572;2024-03-06T21:43:11;5.85;;;4.13;;
40489;SDS011;26196;52.302;10.572;2024-03-06T21:47:12;5.75;;;4.78;;
40489;SDS011;26196;52.302;10.572;2024-03-06T21:51:14;6.70;;;4.45;;
40489;SDS011;26196;52.302;10.572;2024-03-06T21:55:15;5.78;;;4.20;;
40489;SDS011;26196;52.302;10.572;2024-03-06T21:59:17;5.07;;;4.35;;
40489;SDS011;26196;52.302;10.572;2024-03-06T22:03:19;5.50;;;4.63;;
40489;SDS011;26196;52.302;10.572;2024-03-06T22:07:21;5.63;;;4.20;;
40489;SDS011;26196;52.302;10.572;2024-03-06T22:11:22;5.70;;;4.40;;
40489;SDS011;26196;52.302;10.572;2024-03-06T22:15:24;5.65;;;4.15;;
40489;SDS011;26196;52.302;10.572;2024-03-06T22:19:26;5.95;;;4.82;;
40489;SDS011;26196;52.302;10.572;2024-03-06T22:23:27;7.45;;;5.13;;
40489;SDS011;26196;52.302;10.572;2024-03-06T22:27:33;5.95;;;4.60;;
40489;SDS011;26196;52.302;10.572;2024-03-06T22:31:36;6.63;;;4.90;;
40489;SDS011;26196;52.302;10.572;2024-03-06T22:35:41;6.10;;;4.95;;
40489;SDS011;26196;52.302;10.572;2024-03-06T22:39:42;7.20;;;4.88;;
40489;SDS011;26196;52.302;10.572;2024-03-06T22:43:44;6.53;;;4.78;;
40489;SDS011;26196;52.302;10.572;2024-03-06T22:47:46;7.78;;;5.28;;
40489;SDS011;26196;52.302;10.572;2024-03-06T22:51:47;6.18;;;4.75;;
40489;SDS011;26196;52.302;10.572;2024-03-06T22:55:49;5.28;;;4.53;;
40489;SDS011;26196;52.302;10.572;2024-03-06T22:59:51;5.70;;;4.15;;
40489;SDS011;26196;52.302;10.572;2024-03-06T23:03:53;8.20;;;4.88;;
40489;SDS011;26196;52.302;10.572;2024-03-06T23:07:54;5.65;;;5.00;;
40489;SDS011;26196;52.302;10.572;2024-03-06T23:11:56;6.32;;;5.00;;
40489;SDS011;26196;52.302;10.572;2024-03-06T23:15:57;7.43;;;4.75;;
40489;SDS011;26196;52.302;10.572;2024-03-06T23:19:59;6.45;;;4.78;;
40489;SDS011;26196;52.302;10.572;2024-03-06T23:24:04;5.00;;;4.28;;
40489;SDS011;26196;52.302;10.572;2024-03-06T23:28:06;5.60;;;4.22;;
40489;SDS011;26196;52.302;10.572;2024-03-06T23:32:07;5.90;;;4.53;;
40489;SDS011;26196;52.302;10.572;2024-03-06T23:36:09;6.18;;;4.68;;
40489;SDS011;26196;52.302;10.572;2024-03-06T23:40:11;7.05;;;4.75;;
40489;SDS011;26196;52.302;10.572;2024-03-06T23:44:17;5.35;;;4.30;;
40489;SDS011;26196;52.302;10.572;2024-03-06T23:48:19;6.22;;;4.70;;
40489;SDS011;26196;52.302;10.572;2024-03-06T23:52:21;7.20;;;4.95;;
40489;SDS011;26196;52.302;10.572;2024-03-06T23:56:22;6.65;;;5.05;;
